createdAt,value
2023-02-11T00:00:53.684Z,92.22
2023-02-11T00:03:20.204Z,92.22
2023-02-11T00:05:46.625Z,92.51
2023-02-11T00:08:16.976Z,92.42
2023-02-11T00:10:46.338Z,92.26
2023-02-11T00:13:12.822Z,92.67
2023-02-11T00:15:39.369Z,92.08
2023-02-11T00:18:05.778Z,92.31
2023-02-11T00:20:32.175Z,92.73
2023-02-11T00:22:58.622Z,92.60
2023-02-11T00:25:25.035Z,92.69
2023-02-11T00:27:51.441Z,92.55
2023-02-11T00:30:17.868Z,92.96
2023-02-11T00:32:44.328Z,93.13
2023-02-11T00:35:10.696Z,92.23
2023-02-11T00:37:37.148Z,92.71
2023-02-11T00:40:06.720Z,92.72
2023-02-11T00:42:35.535Z,92.86
2023-02-11T00:45:02.292Z,92.89
2023-02-11T00:47:28.680Z,92.74
2023-02-11T00:49:55.187Z,93.15
2023-02-11T00:52:21.601Z,93.05
2023-02-11T00:54:47.976Z,93.59
2023-02-11T00:57:14.733Z,93.29
2023-02-11T00:59:41.068Z,93.36
2023-02-11T01:02:07.438Z,93.55
2023-02-11T01:04:33.898Z,93.79
2023-02-11T01:07:00.414Z,94.36
2023-02-11T01:09:26.806Z,94.54
2023-02-11T01:11:53.206Z,94.46
2023-02-11T01:14:19.620Z,94.47
2023-02-11T01:16:46.052Z,95.33
2023-02-11T01:19:12.550Z,95.26
2023-02-11T01:21:39.099Z,94.99
2023-02-11T01:24:05.999Z,94.71
2023-02-11T01:26:32.478Z,95.10
2023-02-11T01:29:00.889Z,95.17
2023-02-11T01:31:27.371Z,95.55
2023-02-11T01:33:53.802Z,95.40
2023-02-11T01:36:20.190Z,95.86
2023-02-11T01:38:46.690Z,96.14
2023-02-11T01:41:14.939Z,96.03
2023-02-11T01:43:47.767Z,95.90
2023-02-11T01:46:26.386Z,96.22
2023-02-11T01:49:02.489Z,96.29
2023-02-11T01:51:40.057Z,96.14
2023-02-11T01:54:27.370Z,96.13
2023-02-11T01:57:16.259Z,96.44
2023-02-11T01:59:59.642Z,96.28
2023-02-11T02:02:48.264Z,96.18
2023-02-11T02:05:34.922Z,96.08
2023-02-11T02:08:17.612Z,95.94
2023-02-11T02:10:46.866Z,95.73
2023-02-11T02:13:14.626Z,96.26
2023-02-11T02:16:15.306Z,96.08
2023-02-11T02:19:00.373Z,95.84
2023-02-11T02:21:45.470Z,95.80
2023-02-11T02:24:17.853Z,96.25
2023-02-11T02:26:53.301Z,96.13
2023-02-11T02:30:15.809Z,95.84
2023-02-11T02:32:51.207Z,96.48
2023-02-11T02:36:08.840Z,95.96
2023-02-11T02:38:46.743Z,96.29
2023-02-11T02:41:17.106Z,96.26
2023-02-11T02:43:47.710Z,96.39
2023-02-11T02:46:17.430Z,96.24
2023-02-11T02:48:45.054Z,96.34
2023-02-11T02:51:39.314Z,96.22
2023-02-11T02:54:30.804Z,96.61
2023-02-11T02:57:06.313Z,96.45
2023-02-11T02:59:58.934Z,96.25
2023-02-11T03:02:59.428Z,96.53
2023-02-11T03:05:31.831Z,96.18
2023-02-11T03:08:14.628Z,96.19
2023-02-11T03:10:50.685Z,96.43
2023-02-11T03:13:20.014Z,96.26
2023-02-11T03:15:51.031Z,96.80
2023-02-11T03:18:21.509Z,97.09
2023-02-11T03:20:53.226Z,96.68
2023-02-11T03:23:30.892Z,96.90
2023-02-11T03:26:16.203Z,96.72
2023-02-11T03:28:54.852Z,97.09
2023-02-11T03:31:43.615Z,97.34
2023-02-11T03:34:14.599Z,97.19
2023-02-11T03:36:57.058Z,97.29
2023-02-11T03:39:30.590Z,97.25
2023-02-11T03:42:00.345Z,97.47
2023-02-11T03:44:31.225Z,98.02
2023-02-11T03:46:59.049Z,98.67
2023-02-11T03:49:27.753Z,98.19
2023-02-11T03:51:55.789Z,98.25
2023-02-11T03:54:30.906Z,98.16
2023-02-11T03:57:00.505Z,98.94
2023-02-11T03:59:27.299Z,98.82
2023-02-11T04:01:54.489Z,98.59
2023-02-11T04:04:20.967Z,98.93
2023-02-11T04:06:47.415Z,98.66
2023-02-11T04:09:13.808Z,98.80
2023-02-11T04:11:40.154Z,98.84
2023-02-11T04:14:06.523Z,99.07
2023-02-11T04:16:33.035Z,99.52
2023-02-11T04:18:59.529Z,99.06
2023-02-11T04:21:25.928Z,99.27
2023-02-11T04:23:52.364Z,99.29
2023-02-11T04:26:18.713Z,99.25
2023-02-11T04:28:45.051Z,99.05
2023-02-11T04:31:12.054Z,98.91
2023-02-11T04:33:38.474Z,99.37
2023-02-11T04:36:05.034Z,99.59
2023-02-11T04:38:31.879Z,99.32
2023-02-11T04:41:00.429Z,99.08
2023-02-11T04:43:26.856Z,99.30
2023-02-11T04:45:57.546Z,99.37
2023-02-11T04:48:24.553Z,100.00
2023-02-11T04:50:50.960Z,99.43
2023-02-11T04:53:17.437Z,99.94
2023-02-11T04:55:43.872Z,100.00
2023-02-11T04:58:10.232Z,99.57
2023-02-11T05:00:36.711Z,99.65
2023-02-11T05:03:03.099Z,99.80
2023-02-11T05:05:29.543Z,99.80
2023-02-11T05:07:55.901Z,100.00
2023-02-11T05:10:22.312Z,100.00
2023-02-11T05:12:49.634Z,100.00
2023-02-11T05:15:16.188Z,100.00
2023-02-11T05:17:42.590Z,100.00
2023-02-11T05:20:09.727Z,100.00
2023-02-11T05:22:36.064Z,100.00
2023-02-11T05:25:02.522Z,100.00
2023-02-11T05:27:28.849Z,100.00
2023-02-11T05:29:55.296Z,100.00
2023-02-11T05:32:21.711Z,100.00
2023-02-11T05:34:48.129Z,100.00
2023-02-11T05:37:14.903Z,100.00
2023-02-11T05:39:41.318Z,100.00
2023-02-11T05:42:07.706Z,100.00
2023-02-11T05:44:34.166Z,100.00
2023-02-11T05:47:00.618Z,100.00
2023-02-11T05:49:26.958Z,100.00
2023-02-11T05:51:53.317Z,100.00
2023-02-11T05:54:19.758Z,100.00
2023-02-11T05:56:46.120Z,100.00
2023-02-11T05:59:14.888Z,100.00
2023-02-11T06:01:41.463Z,100.00
2023-02-11T06:04:07.882Z,100.00
2023-02-11T06:06:34.260Z,100.00
2023-02-11T06:09:00.610Z,100.00
2023-02-11T06:11:27.003Z,100.00
2023-02-11T06:13:53.371Z,100.00
2023-02-11T06:16:19.792Z,100.00
2023-02-11T06:18:46.280Z,100.00
2023-02-11T06:21:12.937Z,100.00
2023-02-11T06:23:39.391Z,100.00
2023-02-11T06:26:08.787Z,100.00
2023-02-11T06:28:36.000Z,100.00
2023-02-11T06:31:06.940Z,100.00
2023-02-11T06:33:34.991Z,100.00
2023-02-11T06:36:02.013Z,100.00
2023-02-11T06:38:28.399Z,100.00
2023-02-11T06:40:54.866Z,100.00
2023-02-11T06:43:21.238Z,100.00
2023-02-11T06:45:54.155Z,100.00
2023-02-11T06:48:20.553Z,100.00
2023-02-11T06:50:46.988Z,100.00
2023-02-11T06:53:13.657Z,100.00
2023-02-11T06:55:40.370Z,100.00
2023-02-11T06:58:06.731Z,100.00
2023-02-11T07:00:33.141Z,100.00
2023-02-11T07:02:59.686Z,100.00
2023-02-11T07:05:26.159Z,100.00
2023-02-11T07:07:52.559Z,100.00
2023-02-11T07:10:19.128Z,100.00
2023-02-11T07:12:45.587Z,100.00
2023-02-11T07:15:12.065Z,100.00
2023-02-11T07:17:38.516Z,100.00
2023-02-11T07:20:05.369Z,100.00
2023-02-11T07:22:31.830Z,100.00
2023-02-11T07:24:58.198Z,100.00
2023-02-11T07:27:24.661Z,100.00
2023-02-11T07:29:51.013Z,100.00
2023-02-11T07:32:17.534Z,100.00
2023-02-11T07:34:44.009Z,100.00
2023-02-11T07:37:10.926Z,100.00
2023-02-11T07:39:37.276Z,100.00
2023-02-11T07:42:04.224Z,100.00
2023-02-11T07:44:30.848Z,100.00
2023-02-11T07:46:57.240Z,100.00
2023-02-11T07:49:23.617Z,100.00
2023-02-11T07:51:51.347Z,100.00
2023-02-11T07:54:18.164Z,100.00
2023-02-11T07:56:44.733Z,100.00
2023-02-11T07:59:11.570Z,100.00
2023-02-11T08:01:37.957Z,100.00
2023-02-11T08:04:04.666Z,100.00
2023-02-11T08:06:34.294Z,100.00
2023-02-11T08:09:06.791Z,100.00
2023-02-11T08:11:33.219Z,100.00
2023-02-11T08:13:59.631Z,100.00
2023-02-11T08:16:34.454Z,100.00
2023-02-11T08:19:04.092Z,100.00
2023-02-11T08:21:30.607Z,100.00
2023-02-11T08:23:57.503Z,100.00
2023-02-11T08:26:29.841Z,100.00
2023-02-11T08:28:56.944Z,100.00
2023-02-11T08:31:43.971Z,100.00
2023-02-11T08:34:11.897Z,100.00
2023-02-11T08:36:39.610Z,100.00
2023-02-11T08:39:19.161Z,100.00
2023-02-11T08:41:51.566Z,100.00
2023-02-11T08:44:19.663Z,100.00
2023-02-11T08:46:46.467Z,100.00
2023-02-11T08:49:12.897Z,100.00
2023-02-11T08:51:39.756Z,100.00
2023-02-11T08:54:09.487Z,100.00
2023-02-11T08:56:36.780Z,100.00
2023-02-11T08:59:03.789Z,100.00
2023-02-11T09:01:31.515Z,100.00
2023-02-11T09:03:58.906Z,100.00
2023-02-11T09:06:26.476Z,100.00
2023-02-11T09:08:54.778Z,100.00
2023-02-11T09:11:26.977Z,100.00
2023-02-11T09:13:54.495Z,100.00
2023-02-11T09:16:27.366Z,100.00
2023-02-11T09:18:57.056Z,100.00
2023-02-11T09:21:23.511Z,100.00
2023-02-11T09:23:49.977Z,100.00
2023-02-11T09:26:19.993Z,100.00
2023-02-11T09:28:47.693Z,100.00
2023-02-11T09:31:20.662Z,99.87
2023-02-11T09:33:49.469Z,100.00
2023-02-11T09:36:22.299Z,100.00
2023-02-11T09:38:48.886Z,99.57
2023-02-11T09:41:24.301Z,99.70
2023-02-11T09:44:00.916Z,99.66
2023-02-11T09:46:33.045Z,99.27
2023-02-11T09:49:00.561Z,99.33
2023-02-11T09:51:40.930Z,98.96
2023-02-11T09:54:21.004Z,98.86
2023-02-11T09:56:47.362Z,98.73
2023-02-11T09:59:17.628Z,98.46
2023-02-11T10:01:48.518Z,98.68
2023-02-11T10:04:34.546Z,99.09
2023-02-11T10:07:21.227Z,97.96
2023-02-11T10:10:21.288Z,97.97
2023-02-11T10:13:01.145Z,97.60
2023-02-11T10:15:38.355Z,98.07
2023-02-11T10:18:16.463Z,97.75
2023-02-11T10:20:59.047Z,96.88
2023-02-11T10:23:31.705Z,96.10
2023-02-11T10:25:59.095Z,95.79
2023-02-11T10:28:35.670Z,94.75
2023-02-11T10:31:05.294Z,95.12
2023-02-11T10:34:03.500Z,94.27
2023-02-11T10:36:33.860Z,93.58
2023-02-11T10:39:02.253Z,93.44
2023-02-11T10:41:36.878Z,93.41
2023-02-11T10:44:07.098Z,93.47
2023-02-11T10:46:37.827Z,93.62
2023-02-11T10:49:04.316Z,93.39
2023-02-11T10:51:35.245Z,93.74
2023-02-11T10:54:04.620Z,93.47
2023-02-11T10:56:34.447Z,93.31
2023-02-11T10:59:40.348Z,93.76
2023-02-11T11:02:25.179Z,93.75
2023-02-11T11:04:57.036Z,93.40
2023-02-11T11:07:29.497Z,93.24
2023-02-11T11:10:00.277Z,93.15
2023-02-11T11:12:36.203Z,92.90
2023-02-11T11:15:16.549Z,92.92
2023-02-11T11:17:43.073Z,92.57
2023-02-11T11:20:32.278Z,92.73
2023-02-11T11:23:17.460Z,92.54
2023-02-11T11:26:03.632Z,92.66
2023-02-11T11:28:36.615Z,92.29
2023-02-11T11:31:03.614Z,92.15
2023-02-11T11:33:34.294Z,91.61
2023-02-11T11:36:06.513Z,91.38
2023-02-11T11:38:35.262Z,90.75
2023-02-11T11:41:23.136Z,91.40
2023-02-11T11:44:08.392Z,90.36
2023-02-11T11:46:39.097Z,90.04
2023-02-11T11:49:26.667Z,89.93
2023-02-11T11:52:18.047Z,89.15
2023-02-11T11:54:50.233Z,89.52
2023-02-11T11:57:21.986Z,89.18
2023-02-11T11:59:48.414Z,88.78
2023-02-11T12:02:52.437Z,89.26
2023-02-11T12:05:53.430Z,88.61
2023-02-11T12:08:23.183Z,88.41
2023-02-11T12:11:15.315Z,88.29
2023-02-11T12:13:53.575Z,86.86
2023-02-11T12:16:19.975Z,86.95
2023-02-11T12:19:13.969Z,86.52
2023-02-11T12:22:18.320Z,86.16
2023-02-11T12:24:47.738Z,84.37
2023-02-11T12:27:22.095Z,84.15
2023-02-11T12:30:14.371Z,83.76
2023-02-11T12:33:11.650Z,84.57
2023-02-11T12:36:02.309Z,83.20
2023-02-11T12:38:49.297Z,82.31
2023-02-11T12:42:08.569Z,80.43
2023-02-11T12:44:50.875Z,79.73
2023-02-11T12:47:23.260Z,79.06
2023-02-11T12:50:28.739Z,79.48
2023-02-11T12:53:11.816Z,77.64
2023-02-11T12:55:44.838Z,77.84
2023-02-11T12:58:18.987Z,77.64
2023-02-11T13:00:55.409Z,78.78
2023-02-11T13:03:27.224Z,78.31
2023-02-11T13:06:05.396Z,79.15
2023-02-11T13:08:48.424Z,78.62
2023-02-11T13:11:26.074Z,78.35
2023-02-11T13:14:04.472Z,78.36
2023-02-11T13:16:48.784Z,78.62
2023-02-11T13:19:34.766Z,77.77
2023-02-11T13:22:25.865Z,77.96
2023-02-11T13:25:07.272Z,78.14
2023-02-11T13:28:20.810Z,77.73
2023-02-11T13:30:52.402Z,78.05
2023-02-11T13:33:31.719Z,77.49
2023-02-11T13:35:58.027Z,77.23
2023-02-11T13:38:27.507Z,77.57
2023-02-11T13:41:14.412Z,77.35
2023-02-11T13:43:41.128Z,78.01
2023-02-11T13:46:15.543Z,77.81
2023-02-11T13:48:54.092Z,77.11
2023-02-11T13:51:35.135Z,77.30
2023-02-11T13:54:02.437Z,77.57
2023-02-11T13:56:37.988Z,78.73
2023-02-11T13:59:06.988Z,78.84
2023-02-11T14:02:17.779Z,79.85
2023-02-11T14:05:24.811Z,79.47
2023-02-11T14:08:28.078Z,79.76
2023-02-11T14:11:01.684Z,79.72
2023-02-11T14:13:30.734Z,80.10
2023-02-11T14:16:25.432Z,79.98
2023-02-11T14:19:02.468Z,79.40
2023-02-11T14:21:32.389Z,79.17
2023-02-11T14:24:01.775Z,78.31
2023-02-11T14:26:51.926Z,78.58
2023-02-11T14:29:28.725Z,78.76
2023-02-11T14:32:18.714Z,78.53
2023-02-11T14:34:57.212Z,77.56
2023-02-11T14:38:08.100Z,77.99
2023-02-11T14:40:56.772Z,78.27
2023-02-11T14:43:33.055Z,78.21
2023-02-11T14:46:01.280Z,78.45
2023-02-11T14:48:31.650Z,78.52
2023-02-11T14:51:03.038Z,78.71
2023-02-11T14:53:33.174Z,78.27
2023-02-11T14:55:59.685Z,78.41
2023-02-11T14:58:31.685Z,78.41
2023-02-11T15:01:01.311Z,79.48
2023-02-11T15:03:29.048Z,78.96
2023-02-11T15:05:58.700Z,78.80
2023-02-11T15:08:26.480Z,78.75
2023-02-11T15:10:55.284Z,79.05
2023-02-11T15:13:27.114Z,79.48
2023-02-11T15:15:57.902Z,79.38
2023-02-11T15:18:31.754Z,79.40
2023-02-11T15:20:58.200Z,79.63
2023-02-11T15:23:29.661Z,79.34
2023-02-11T15:25:56.559Z,79.98
2023-02-11T15:28:29.104Z,79.82
2023-02-11T15:31:17.414Z,80.11
2023-02-11T15:33:43.890Z,80.53
2023-02-11T15:36:12.608Z,80.22
2023-02-11T15:38:40.029Z,80.91
2023-02-11T15:41:07.577Z,80.70
2023-02-11T15:43:48.721Z,81.32
2023-02-11T15:46:18.787Z,81.24
2023-02-11T15:48:49.219Z,81.46
2023-02-11T15:51:25.247Z,81.59
2023-02-11T15:53:58.602Z,81.83
2023-02-11T15:56:45.581Z,81.82
2023-02-11T15:59:17.215Z,82.69
2023-02-11T16:01:45.538Z,81.81
2023-02-11T16:04:24.414Z,82.47
2023-02-11T16:06:51.395Z,83.33
2023-02-11T16:09:31.800Z,82.37
2023-02-11T16:12:03.137Z,83.03
2023-02-11T16:14:29.587Z,82.80
2023-02-11T16:17:04.122Z,83.77
2023-02-11T16:19:32.582Z,83.88
2023-02-11T16:22:02.489Z,84.19
2023-02-11T16:24:33.004Z,84.12
2023-02-11T16:27:06.859Z,84.03
2023-02-11T16:29:36.516Z,84.43
2023-02-11T16:32:08.440Z,83.96
2023-02-11T16:34:35.089Z,84.50
2023-02-11T16:37:04.747Z,84.42
2023-02-11T16:39:31.210Z,84.83
2023-02-11T16:41:58.274Z,85.00
2023-02-11T16:44:24.846Z,85.15
2023-02-11T16:46:52.762Z,85.58
2023-02-11T16:49:32.611Z,84.45
2023-02-11T16:52:01.814Z,85.76
2023-02-11T16:54:29.602Z,85.48
2023-02-11T16:56:56.874Z,85.42
2023-02-11T16:59:23.703Z,85.65
2023-02-11T17:01:51.941Z,85.76
2023-02-11T17:04:25.966Z,85.72
2023-02-11T17:06:52.480Z,85.27
2023-02-11T17:09:24.437Z,86.21
2023-02-11T17:11:51.592Z,85.63
2023-02-11T17:14:19.242Z,85.14
2023-02-11T17:16:47.770Z,85.72
2023-02-11T17:19:17.221Z,86.21
2023-02-11T17:21:45.149Z,85.93
2023-02-11T17:24:14.294Z,86.07
2023-02-11T17:26:41.484Z,85.67
2023-02-11T17:29:09.869Z,86.58
2023-02-11T17:31:36.632Z,85.85
2023-02-11T17:34:03.518Z,86.16
2023-02-11T17:36:33.297Z,85.64
2023-02-11T17:39:01.158Z,86.33
2023-02-11T17:41:27.876Z,86.53
2023-02-11T17:43:57.587Z,86.31
2023-02-11T17:46:24.406Z,86.05
2023-02-11T17:48:52.759Z,86.24
2023-02-11T17:51:28.433Z,86.36
2023-02-11T17:53:57.764Z,86.38
2023-02-11T17:56:24.836Z,86.61
2023-02-11T17:58:52.953Z,86.85
2023-02-11T18:01:20.021Z,86.50
2023-02-11T18:03:46.444Z,86.36
2023-02-11T18:06:12.843Z,86.91
2023-02-11T18:08:39.229Z,87.04
2023-02-11T18:11:09.969Z,87.40
2023-02-11T18:13:36.373Z,86.83
2023-02-11T18:16:04.245Z,87.42
2023-02-11T18:18:31.540Z,86.94
2023-02-11T18:20:59.529Z,87.61
2023-02-11T18:23:26.490Z,87.49
2023-02-11T18:25:53.506Z,87.86
2023-02-11T18:28:20.266Z,87.74
2023-02-11T18:30:46.729Z,87.77
2023-02-11T18:33:14.429Z,87.38
2023-02-11T18:35:42.119Z,87.19
2023-02-11T18:38:09.768Z,87.82
2023-02-11T18:40:39.799Z,87.66
2023-02-11T18:43:06.806Z,88.32
2023-02-11T18:45:33.517Z,87.76
2023-02-11T18:48:03.483Z,87.88
2023-02-11T18:50:30.120Z,88.39
2023-02-11T18:52:56.621Z,87.99
2023-02-11T18:55:25.717Z,87.71
2023-02-11T18:57:52.994Z,88.10
2023-02-11T19:00:21.352Z,88.14
2023-02-11T19:02:47.711Z,88.41
2023-02-11T19:05:14.275Z,88.43
2023-02-11T19:07:41.703Z,87.97
2023-02-11T19:10:08.805Z,88.17
2023-02-11T19:12:35.204Z,88.65
2023-02-11T19:15:01.661Z,88.68
2023-02-11T19:17:28.069Z,88.64
2023-02-11T19:19:54.422Z,88.67
2023-02-11T19:22:20.911Z,88.62
2023-02-11T19:24:47.381Z,88.53
2023-02-11T19:27:13.784Z,89.08
2023-02-11T19:29:40.242Z,89.24
2023-02-11T19:32:06.948Z,88.80
2023-02-11T19:34:40.914Z,88.73
2023-02-11T19:37:12.669Z,88.90
2023-02-11T19:39:40.514Z,88.85
2023-02-11T19:42:07.237Z,89.25
2023-02-11T19:44:33.706Z,88.88
2023-02-11T19:47:00.230Z,89.40
2023-02-11T19:49:26.810Z,89.28
2023-02-11T19:51:57.269Z,88.95
2023-02-11T19:54:26.441Z,89.25
2023-02-11T19:56:53.594Z,88.92
2023-02-11T19:59:20.404Z,89.45
2023-02-11T20:01:48.875Z,89.78
2023-02-11T20:04:16.841Z,89.13
2023-02-11T20:06:43.486Z,89.22
2023-02-11T20:09:13.459Z,89.12
2023-02-11T20:11:40.914Z,89.49
2023-02-11T20:14:08.342Z,89.65
2023-02-11T20:16:47.705Z,89.31
2023-02-11T20:19:21.236Z,89.60
2023-02-11T20:21:50.760Z,88.79
2023-02-11T20:24:18.565Z,89.17
2023-02-11T20:26:47.986Z,89.82
2023-02-11T20:29:18.338Z,89.60
2023-02-11T20:31:45.543Z,89.22
2023-02-11T20:34:12.600Z,89.11
2023-02-11T20:36:40.388Z,89.11
2023-02-11T20:39:07.536Z,89.46
2023-02-11T20:41:36.512Z,89.58
2023-02-11T20:44:05.691Z,89.45
2023-02-11T20:46:33.876Z,89.41
2023-02-11T20:49:01.300Z,89.92
2023-02-11T20:51:31.032Z,89.77
2023-02-11T20:53:58.470Z,89.62
2023-02-11T20:56:30.038Z,89.50
2023-02-11T20:58:58.024Z,90.44
2023-02-11T21:01:35.710Z,89.72
2023-02-11T21:04:03.866Z,89.12
2023-02-11T21:06:36.613Z,89.93
2023-02-11T21:09:05.259Z,89.28
2023-02-11T21:11:31.741Z,90.06
2023-02-11T21:13:58.579Z,89.56
2023-02-11T21:16:25.717Z,90.34
2023-02-11T21:18:52.616Z,89.70
2023-02-11T21:21:19.853Z,90.02
2023-02-11T21:23:46.386Z,89.54
2023-02-11T21:26:13.338Z,89.91
2023-02-11T21:28:43.308Z,90.08
2023-02-11T21:31:10.074Z,90.19
2023-02-11T21:33:36.675Z,90.36
2023-02-11T21:36:04.665Z,89.68
2023-02-11T21:38:33.545Z,90.47
2023-02-11T21:41:06.785Z,90.02
2023-02-11T21:43:33.588Z,90.24
2023-02-11T21:46:00.659Z,90.00
2023-02-11T21:48:27.192Z,90.36
2023-02-11T21:50:53.770Z,90.35
2023-02-11T21:53:20.389Z,90.80
2023-02-11T21:55:46.863Z,90.05
2023-02-11T21:58:14.046Z,90.44
2023-02-11T22:00:40.569Z,90.61
2023-02-11T22:03:07.000Z,90.12
2023-02-11T22:05:33.409Z,90.59
2023-02-11T22:07:59.846Z,90.70
2023-02-11T22:10:26.316Z,90.74
2023-02-11T22:12:52.743Z,90.80
2023-02-11T22:15:19.674Z,90.63
2023-02-11T22:17:46.111Z,91.29
2023-02-11T22:20:12.820Z,90.45
2023-02-11T22:22:39.244Z,90.98
2023-02-11T22:25:06.143Z,91.11
2023-02-11T22:27:32.593Z,90.54
2023-02-11T22:29:59.042Z,90.95
2023-02-11T22:32:25.474Z,91.12
2023-02-11T22:34:53.407Z,91.00
2023-02-11T22:37:20.239Z,90.73
2023-02-11T22:39:46.743Z,91.27
2023-02-11T22:42:13.099Z,91.14
2023-02-11T22:44:39.512Z,90.95
2023-02-11T22:47:06.021Z,91.59
2023-02-11T22:49:33.193Z,91.16
2023-02-11T22:52:00.304Z,91.72
2023-02-11T22:54:27.234Z,91.28
2023-02-11T22:56:53.729Z,90.98
2023-02-11T22:59:21.082Z,91.23
2023-02-11T23:01:47.870Z,91.56
2023-02-11T23:04:17.042Z,91.23
2023-02-11T23:06:43.810Z,91.38
2023-02-11T23:09:12.503Z,91.29
2023-02-11T23:11:39.708Z,91.47
2023-02-11T23:14:08.523Z,91.29
2023-02-11T23:16:35.424Z,91.50
2023-02-11T23:19:08.770Z,91.90
2023-02-11T23:21:37.768Z,91.14
2023-02-11T23:24:08.376Z,91.16
2023-02-11T23:26:35.361Z,91.02
2023-02-11T23:29:01.959Z,91.33
2023-02-11T23:31:33.120Z,91.09
2023-02-11T23:34:01.076Z,91.85
2023-02-11T23:36:28.163Z,91.72
2023-02-11T23:38:54.708Z,91.40
2023-02-11T23:41:21.920Z,91.62
2023-02-11T23:43:50.746Z,91.65
2023-02-11T23:46:17.604Z,91.08
2023-02-11T23:48:44.362Z,91.25
2023-02-11T23:51:11.109Z,91.54
2023-02-11T23:53:38.805Z,91.44
2023-02-11T23:56:10.662Z,91.76
2023-02-11T23:58:37.381Z,92.06
